Time;durP1;ratioP1;P1;durP2;ratioP2;P2;SDS_P1;SDS_P2;PMS_P1;PMS_P2;Temp;Humidity;BMP_temperature;BMP_pressure;BME280_temperature;BME280_humidity;BME280_pressure;Samples;Min_cycle;Max_cycle;Signal;HPM_P1;HPM_P2
2022/07/09 00:03:25;;;;;;;;;;;;;;;17.08;70.98;100930.91;12180183;19;20010;-80
2022/07/09 00:07:27;;;;;;;5.70;2.75;;;;;;;17.02;70.79;100929.19;12200550;19;19915;-80
2022/07/09 00:11:28;;;;;;;7.22;2.95;;;;;;;16.98;71.34;100936.38;12197519;19;20059;-79
2022/07/09 00:15:30;;;;;;;6.78;2.70;;;;;;;16.94;71.64;100932.47;12168347;19;20678;-80
2022/07/09 00:19:32;;;;;;;5.93;2.80;;;;;;;16.91;72.08;100919.91;12205769;19;20844;-79
2022/07/09 00:23:34;;;;;;;7.97;2.55;;;;;;;16.86;72.63;100919.84;12199693;19;20069;-78
2022/07/09 00:27:35;;;;;;;6.43;2.95;;;;;;;16.83;72.69;100918.44;12183205;19;20007;-79
2022/07/09 00:31:37;;;;;;;8.57;3.05;;;;;;;16.79;73.06;100908.94;12194702;19;20090;-80
2022/07/09 00:35:39;;;;;;;6.88;3.28;;;;;;;16.78;73.57;100912.84;12201846;19;20050;-80
2022/07/09 00:39:40;;;;;;;5.65;2.80;;;;;;;16.77;73.78;100910.31;12171551;19;20017;-80
2022/07/09 00:43:47;;;;;;;8.35;3.22;;;;;;;16.73;74.16;100901.63;12192709;19;20050;-78
2022/07/09 00:47:49;;;;;;;7.78;3.28;;;;;;;16.73;74.63;100907.19;12204906;19;20006;-79
2022/07/09 00:51:51;;;;;;;5.07;2.88;;;;;;;16.70;74.34;100898.53;12179716;19;20003;-79
2022/07/09 00:55:53;;;;;;;6.97;3.00;;;;;;;16.68;74.40;100895.16;12190640;19;20512;-79
2022/07/09 00:59:56;;;;;;;4.57;2.88;;;;;;;16.64;74.60;100886.50;12203105;19;20020;-79
2022/07/09 01:03:58;;;;;;;;;;;;;;;16.61;74.91;100892.59;12175249;19;20011;-80
2022/07/09 01:07:59;;;;;;;8.70;3.10;;;;;;;16.59;74.90;100883.69;12190469;19;19922;-78
2022/07/09 01:12:01;;;;;;;7.25;3.03;;;;;;;16.55;75.54;100880.59;12185804;19;20108;-78
2022/07/09 01:16:03;;;;;;;7.80;2.80;;;;;;;16.54;76.03;100883.66;12193100;19;20131;-77
2022/07/09 01:20:06;;;;;;;8.05;2.70;;;;;;;16.54;76.68;100873.34;12195756;19;20018;-76
2022/07/09 01:24:08;;;;;;;10.45;3.10;;;;;;;16.55;77.00;100880.59;12179211;19;20038;-77
2022/07/09 01:28:10;;;;;;;9.02;3.75;;;;;;;16.59;76.61;100869.75;12205046;19;20086;-78
2022/07/09 01:32:11;;;;;;;6.50;3.05;;;;;;;16.57;76.95;100869.22;12203070;19;20086;-78
2022/07/09 01:36:13;;;;;;;4.80;2.58;;;;;;;16.58;77.14;100866.16;12177226;19;20009;-77
2022/07/09 01:40:15;;;;;;;5.15;2.13;;;;;;;16.59;77.36;100865.03;12186434;19;20101;-77
2022/07/09 01:44:16;;;;;;;4.03;2.15;;;;;;;16.60;77.38;100857.53;12198293;19;20007;-79
2022/07/09 01:48:18;;;;;;;4.25;2.13;;;;;;;16.60;77.53;100854.75;12166369;19;20078;-79
2022/07/09 01:52:20;;;;;;;3.67;1.85;;;;;;;16.60;77.19;100851.97;12195013;19;20126;-78
2022/07/09 01:56:21;;;;;;;2.55;1.95;;;;;;;16.57;77.33;100849.72;12194299;19;20011;-78
2022/07/09 02:00:23;;;;;;;6.30;2.38;;;;;;;16.53;78.03;100846.59;12183029;19;20030;-77
2022/07/09 02:04:25;;;;;;;4.32;2.13;;;;;;;16.48;78.27;100841.03;12196349;19;20010;-78
2022/07/09 02:08:27;;;;;;;9.32;2.42;;;;;;;16.43;78.59;100842.91;12206098;19;20020;-76
2022/07/09 02:12:28;;;;;;;5.82;2.53;;;;;;;16.32;78.96;100841.97;12183820;19;20014;-77
2022/07/09 02:16:30;;;;;;;5.95;2.50;;;;;;;16.20;79.75;100839.34;12202287;19;20626;-77
2022/07/09 02:20:32;;;;;;;8.85;2.67;;;;;;;16.10;80.56;100845.66;12203251;19;20006;-78
2022/07/09 02:24:34;;;;;;;3.50;2.00;;;;;;;16.06;81.42;100846.41;12183094;19;20014;-78
2022/07/09 02:28:35;;;;;;;4.65;2.30;;;;;;;16.04;81.11;100845.84;12207762;19;20501;-78
2022/07/09 02:32:39;;;;;;;3.17;2.22;;;;;;;16.03;81.38;100839.47;12213346;19;20022;-78
2022/07/09 02:36:40;;;;;;;3.03;2.20;;;;;;;16.03;81.37;100845.03;12179680;19;20007;-78
2022/07/09 02:40:42;;;;;;;3.40;2.30;;;;;;;15.99;81.59;100843.84;12202213;19;20014;-78
2022/07/09 02:44:43;;;;;;;4.82;2.00;;;;;;;15.95;82.15;100848.25;12201764;19;20410;-77
2022/07/09 02:48:45;;;;;;;3.22;2.20;;;;;;;15.99;81.93;100843.00;12185864;19;20574;-78
2022/07/09 02:52:47;;;;;;;5.07;2.30;;;;;;;15.99;82.51;100840.22;12209442;19;20010;-78
2022/07/09 02:56:49;;;;;;;4.68;2.20;;;;;;;15.99;82.49;100848.56;12201292;19;20011;-78
2022/07/09 03:00:50;;;;;;;3.45;1.95;;;;;;;15.97;82.51;100845.19;12176190;19;20070;-77
2022/07/09 03:04:52;;;;;;;5.70;2.65;;;;;;;15.95;83.33;100837.97;12206520;19;20658;-77
2022/07/09 03:08:54;;;;;;;4.80;2.17;;;;;;;15.98;82.58;100841.34;12203799;19;20078;-77
2022/07/09 03:12:55;;;;;;;5.65;2.30;;;;;;;15.93;82.55;100834.59;12181446;19;20010;-76
2022/07/09 03:16:57;;;;;;;5.22;2.08;;;;;;;15.93;82.89;100834.59;12204190;19;20362;-77
2022/07/09 03:20:59;;;;;;;2.97;1.98;;;;;;;15.93;82.86;100839.31;12210350;19;20081;-77
2022/07/09 03:25:02;;;;;;;4.47;2.33;;;;;;;15.86;83.07;100836.75;12181396;19;20017;-77
2022/07/09 03:29:03;;;;;;;3.65;1.88;;;;;;;15.83;83.49;100842.84;12208770;19;20015;-77
2022/07/09 03:33:05;;;;;;;5.43;2.05;;;;;;;15.80;83.46;100843.34;12208153;19;20007;-76
2022/07/09 03:37:07;;;;;;;3.90;1.95;;;;;;;15.79;83.88;100838.03;12185899;19;20532;-77
2022/07/09 03:41:08;;;;;;;3.05;2.20;;;;;;;15.81;84.21;100833.91;12197658;19;20427;-77
2022/07/09 03:45:10;;;;;;;4.22;2.20;;;;;;;15.83;84.17;100833.66;12195539;19;20015;-76
2022/07/09 03:49:12;;;;;;;4.47;2.40;;;;;;;15.81;84.18;100835.84;12202288;19;20106;-78
2022/07/09 03:53:14;;;;;;;5.63;2.50;;;;;;;15.84;83.98;100832.56;12205725;19;20816;-77
2022/07/09 03:57:16;;;;;;;5.55;1.90;;;;;;;15.85;84.46;100837.84;12172616;19;20443;-77
2022/07/09 04:01:18;;;;;;;3.25;2.05;;;;;;;15.90;84.40;100834.28;12191744;19;20078;-77
2022/07/09 04:05:20;;;;;;;4.30;2.20;;;;;;;15.92;84.55;100841.28;12194065;19;20010;-78
2022/07/09 04:09:22;;;;;;;3.97;2.00;;;;;;;15.93;84.43;100831.81;12179199;19;20006;-78
2022/07/09 04:13:24;;;;;;;5.20;2.30;;;;;;;15.95;84.50;100840.75;12192262;19;20010;-77
2022/07/09 04:17:25;;;;;;;5.78;2.80;;;;;;;16.02;84.39;100842.50;12190188;19;20078;-77
2022/07/09 04:21:27;;;;;;;4.15;2.53;;;;;;;16.08;84.38;100833.09;12167348;19;20007;-77
2022/07/09 04:25:29;;;;;;;6.63;2.90;;;;;;;16.12;84.50;100828.69;12205125;19;20002;-78
2022/07/09 04:29:30;;;;;;;5.18;2.75;;;;;;;16.17;84.51;100834.31;12196517;19;20094;-78
2022/07/09 04:33:32;;;;;;;4.82;3.17;;;;;;;16.21;84.39;100832.69;12172073;19;20007;-77
2022/07/09 04:37:34;;;;;;;5.13;2.58;;;;;;;16.25;84.63;100839.41;12195862;19;20670;-77
2022/07/09 04:41:36;;;;;;;6.38;2.88;;;;;;;16.33;84.49;100838.06;12203072;19;20025;-77
2022/07/09 04:45:38;;;;;;;5.97;2.95;;;;;;;16.41;84.60;100835.66;12179856;19;20018;-76
2022/07/09 04:49:40;;;;;;;5.40;2.50;;;;;;;16.53;84.30;100840.22;12190260;19;20015;-77
2022/07/09 04:53:41;;;;;;;5.78;2.78;;;;;;;16.66;83.92;100837.00;12202754;19;20010;-77
2022/07/09 04:57:43;;;;;;;6.10;2.65;;;;;;;16.80;83.84;100829.06;12172519;19;20082;-76
2022/07/09 05:01:45;;;;;;;6.13;2.65;;;;;;;16.95;83.76;100829.16;12198382;19;20010;-76
2022/07/09 05:05:47;;;;;;;4.38;2.95;;;;;;;17.14;83.13;100828.75;12197301;19;20037;-77
2022/07/09 05:09:51;;;;;;;4.22;2.38;;;;;;;17.31;82.48;100835.84;12172308;19;20014;-77
2022/07/09 05:13:53;;;;;;;5.00;2.42;;;;;;;17.48;81.82;100834.78;12186973;19;20015;-77
2022/07/09 05:17:55;;;;;;;3.70;2.35;;;;;;;17.64;81.75;100830.97;12195819;19;20083;-76
2022/07/09 05:21:56;;;;;;;7.93;2.72;;;;;;;17.76;81.05;100827.97;12172772;19;20372;-77
2022/07/09 05:25:58;;;;;;;5.47;2.50;;;;;;;17.88;80.70;100831.38;12201754;19;20026;-77
2022/07/09 05:30:00;;;;;;;5.50;2.25;;;;;;;18.01;80.54;100835.59;12203401;19;20114;-76
2022/07/09 05:34:02;;;;;;;5.78;2.75;;;;;;;18.08;80.25;100830.56;12173383;19;20094;-76
2022/07/09 05:38:04;;;;;;;6.43;2.40;;;;;;;18.12;80.10;100828.94;12195917;19;20016;-77
2022/07/09 05:42:06;;;;;;;4.93;2.60;;;;;;;18.14;79.87;100823.91;12200527;19;20113;-76
2022/07/09 05:46:08;;;;;;;7.28;2.58;;;;;;;18.18;79.82;100824.22;12180820;19;20590;-77
2022/07/09 05:50:10;;;;;;;4.38;2.25;;;;;;;18.21;79.54;100832.03;12208874;19;20006;-77
2022/07/09 05:54:12;;;;;;;5.10;2.10;;;;;;;18.20;79.37;100831.19;12182424;19;20002;-77
2022/07/09 05:58:15;;;;;;;5.47;2.72;;;;;;;18.20;78.68;100830.31;12199626;19;20006;-77
2022/07/09 06:02:18;;;;;;;5.70;2.15;;;;;;;18.16;78.08;100832.00;12202670;19;20113;-76
2022/07/09 06:06:20;;;;;;;3.85;2.40;;;;;;;18.20;77.49;100828.41;12184981;19;20033;-77
2022/07/09 06:10:22;;;;;;;9.60;2.70;;;;;;;18.26;77.21;100836.75;12213339;19;20029;-77
2022/07/09 06:14:24;;;;;;;4.40;2.27;;;;;;;18.31;77.02;100836.78;12207029;19;20094;-77
2022/07/09 06:18:28;;;;;;;4.47;2.92;;;;;;;18.37;76.71;100838.47;12175572;19;20015;-77
2022/07/09 06:22:30;;;;;;;4.03;2.77;;;;;;;18.45;76.44;100830.38;12201311;19;20011;-76
2022/07/09 06:26:33;;;;;;;5.32;2.83;;;;;;;18.59;76.14;100836.25;12208898;19;20529;-78
2022/07/09 06:30:35;;;;;;;;;;;;;;;18.74;75.80;100840.19;12185531;19;20037;-78
2022/07/09 06:34:36;;;;;;;5.68;3.70;;;;;;;18.90;75.29;100848.28;12207181;19;19907;-79
2022/07/09 06:39:44;;;;;;;5.05;3.10;;;;;;;19.11;74.09;100843.50;12208934;19;20014;-78
2022/07/09 06:43:00;;;;;;;6.35;3.70;;;;;;;19.27;73.50;100843.47;12184081;19;20492;-77
2022/07/09 06:47:18;;;;;;;5.93;3.85;;;;;;;19.53;73.19;100847.03;12208255;19;20010;-77
2022/07/09 06:51:19;;;;;;;6.28;4.25;;;;;;;19.76;72.01;100854.00;12176808;19;20033;-78
2022/07/09 06:55:21;;;;;;;5.25;3.50;;;;;;;19.98;71.01;100848.00;12201294;19;20006;-78
2022/07/09 06:59:24;;;;;;;9.48;4.13;;;;;;;20.24;70.95;100848.72;12203185;19;20805;-77
2022/07/09 07:03:26;;;;;;;9.40;3.78;;;;;;;20.45;70.12;100849.41;12185344;19;20013;-79
2022/07/09 07:07:28;;;;;;;6.50;3.97;;;;;;;20.70;68.84;100856.78;12199077;19;20439;-79
2022/07/09 07:11:30;;;;;;;7.75;3.85;;;;;;;20.95;67.51;100858.56;12164487;19;20018;-76
2022/07/09 07:15:31;;;;;;;6.45;3.72;;;;;;;21.24;66.97;100858.56;12167719;19;20090;-78
2022/07/09 07:19:33;;;;;;;7.35;3.22;;;;;;;21.65;65.26;100855.34;12204076;19;20018;-78
2022/07/09 07:23:35;;;;;;;11.27;4.30;;;;;;;22.16;62.59;100846.28;12203037;19;20577;-79
2022/07/09 07:27:36;;;;;;;6.85;4.22;;;;;;;22.66;61.83;100840.19;12193042;19;20448;-78
2022/07/09 07:31:38;;;;;;;8.52;3.35;;;;;;;22.88;60.97;100837.56;12168679;19;20107;-79
2022/07/09 07:35:40;;;;;;;6.60;3.40;;;;;;;22.91;60.91;100836.13;12206405;19;20018;-79
2022/07/09 07:39:42;;;;;;;8.88;3.53;;;;;;;22.88;60.26;100843.19;12206319;19;20023;-80
2022/07/09 07:43:44;;;;;;;5.05;3.40;;;;;;;22.69;60.26;100837.59;12187925;19;20014;-80
2022/07/09 07:47:46;;;;;;;;;;;;;;;22.82;59.98;100838.81;12223253;19;20062;-79
2022/07/09 07:51:48;;;;;;;10.20;3.88;;;;;;;23.20;59.29;100844.31;12227598;19;19914;-77
2022/07/09 07:55:50;;;;;;;6.55;3.42;;;;;;;23.51;58.19;100833.34;12197185;19;20048;-79
2022/07/09 07:59:51;;;;;;;13.88;4.60;;;;;;;23.98;56.40;100839.72;12219973;19;20039;-80
2022/07/09 08:03:53;;;;;;;8.57;3.88;;;;;;;24.20;55.04;100832.47;12215645;19;20028;-80
2022/07/09 08:07:55;;;;;;;7.23;4.40;;;;;;;24.41;54.24;100830.81;12195223;19;20037;-79
2022/07/09 08:11:56;;;;;;;11.63;5.65;;;;;;;24.51;53.46;100824.13;12222214;19;20013;-82
2022/07/09 08:16:00;;;;;;;10.20;5.53;;;;;;;24.68;51.94;100829.09;12215920;19;20010;-80
2022/07/09 08:20:02;;;;;;;13.75;4.90;;;;;;;24.69;51.74;100816.66;12188649;19;20011;-81
2022/07/09 08:24:06;;;;;;;12.23;6.55;;;;;;;24.59;52.12;100811.28;12211609;19;20027;-80
2022/07/09 08:28:07;;;;;;;11.27;6.07;;;;;;;24.52;52.18;100812.56;12223577;19;20014;-81
2022/07/09 08:32:09;;;;;;;8.90;4.93;;;;;;;24.25;52.89;100813.47;12199216;19;20011;-81
2022/07/09 08:36:11;;;;;;;14.03;4.37;;;;;;;24.17;53.68;100811.41;12212673;19;20014;-81
2022/07/09 08:40:13;;;;;;;7.20;4.32;;;;;;;24.24;53.17;100811.81;12208135;19;20031;-80
2022/07/09 08:44:18;;;;;;;8.40;3.90;;;;;;;24.38;52.77;100800.47;12191415;19;20114;-81
2022/07/09 08:48:20;;;;;;;8.18;3.97;;;;;;;24.79;51.38;100794.69;12206523;19;20012;-80
2022/07/09 08:52:24;;;;;;;7.43;4.40;;;;;;;24.88;50.26;100791.09;12195790;19;20010;-81
2022/07/09 08:56:25;;;;;;;6.90;3.70;;;;;;;24.88;50.58;100785.47;12209472;19;20014;-80
2022/07/09 09:00:27;;;;;;;7.20;4.07;;;;;;;24.63;49.69;100795.38;12211731;19;20014;-82
2022/07/09 09:04:28;;;;;;;7.65;3.63;;;;;;;24.99;49.13;100789.69;12187595;19;20015;-83
2022/07/09 09:08:37;;;;;;;8.82;3.17;;;;;;;25.48;49.03;100781.28;12206503;19;20015;-82
2022/07/09 09:12:39;;;;;;;8.35;3.28;;;;;;;25.55;47.23;100776.84;12211131;19;20043;-80
2022/07/09 09:16:42;;;;;;;6.07;3.90;;;;;;;25.91;45.38;100776.63;12186691;19;20099;-83
2022/07/09 09:20:45;;;;;;;7.03;3.70;;;;;;;26.23;44.46;100773.63;12221231;19;20030;-83
2022/07/09 09:24:51;;;;;;;5.50;3.10;;;;;;;26.43;43.96;100777.78;12215823;19;20010;-82
2022/07/09 09:28:59;;;;;;;7.75;3.42;;;;;;;26.03;44.66;100761.84;12200748;19;20015;-82
2022/07/09 09:33:02;;;;;;;10.23;3.60;;;;;;;25.72;45.56;100776.03;12217404;19;20017;-82
2022/07/09 09:37:04;;;;;;;9.15;3.50;;;;;;;25.66;46.23;100771.72;12222933;19;20033;-84
2022/07/09 09:41:06;;;;;;;5.10;3.00;;;;;;;26.00;45.41;100756.00;12201376;19;20014;-82
2022/07/09 09:45:09;;;;;;;7.67;3.57;;;;;;;26.29;44.26;100761.84;12221192;19;20532;-84
2022/07/09 09:49:14;;;;;;;6.80;3.35;;;;;;;26.86;43.16;100745.81;12223805;19;20259;-84
2022/07/09 09:53:17;;;;;;;10.18;3.22;;;;;;;27.36;42.49;100750.81;12202273;19;20463;-86
2022/07/09 09:57:24;;;;;;;7.13;3.00;;;;;;;27.15;41.22;100750.75;12220187;19;20052;-83
2022/07/09 10:01:27;;;;;;;4.47;2.72;;;;;;;26.51;41.97;100738.25;12191093;19;20007;-83
2022/07/09 10:05:32;;;;;;;8.57;2.97;;;;;;;26.69;41.95;100735.41;12244874;19;20011;-82
2022/07/09 10:09:34;;;;;;;7.03;2.53;;;;;;;26.88;42.09;100746.31;12220363;19;20027;-84
2022/07/09 10:13:49;;;;;;;;;;;;;;;27.45;40.36;100732.59;12198444;19;19998;-83
2022/07/09 10:17:54;;;;;;;4.00;2.90;;;;;;;27.81;40.27;100722.78;12219301;19;19915;-83
2022/07/09 10:21:58;;;;;;;4.43;2.78;;;;;;;27.86;39.40;100727.41;12222447;19;20023;-80
2022/07/09 10:26:00;;;;;;;4.35;2.53;;;;;;;27.54;39.33;100731.72;12201300;19;20003;-82
2022/07/09 10:30:02;;;;;;;4.05;2.35;;;;;;;27.56;39.32;100724.56;12222383;19;20007;-81
2022/07/09 10:34:10;;;;;;;4.00;2.22;;;;;;;27.60;39.35;100719.88;12219308;19;20118;-81
2022/07/09 10:38:12;;;;;;;7.50;2.58;;;;;;;28.11;38.66;100712.19;12202071;19;20094;-81
2022/07/09 10:42:19;;;;;;;6.57;2.55;;;;;;;28.19;37.78;100727.44;12221408;19;20510;-80
2022/07/09 10:46:22;;;;;;;7.35;2.72;;;;;;;27.73;38.05;100712.31;12198445;19;20015;-81
2022/07/09 10:50:30;;;;;;;6.53;2.40;;;;;;;27.32;38.95;100713.88;12222909;19;20475;-81
2022/07/09 10:54:33;;;;;;;5.63;2.40;;;;;;;26.87;38.98;100710.72;12218461;19;20014;-80
2022/07/09 10:58:35;;;;;;;3.83;2.10;;;;;;;26.62;39.37;100699.13;12192186;19;20011;-81
2022/07/09 11:02:37;;;;;;;;;;;;;;;25.99;40.28;100695.06;12212404;19;20003;-81
2022/07/09 11:06:48;;;;;;;4.82;2.30;;;;;;;26.28;41.19;100692.38;12209074;19;20432;-82
2022/07/09 11:10:51;;;;;;;4.63;1.90;;;;;;;27.16;39.21;100681.69;12190193;19;20023;-80
2022/07/09 11:14:52;;;;;;;3.97;1.75;;;;;;;28.06;37.38;100669.09;12202555;19;20066;-81
2022/07/09 11:18:54;;;;;;;5.47;1.85;;;;;;;28.41;36.37;100669.59;12210935;19;20037;-82
2022/07/09 11:22:59;;;;;;;3.30;1.48;;;;;;;28.70;34.59;100664.94;12189722;19;20007;-81
2022/07/09 11:27:05;;;;;;;4.78;1.60;;;;;;;28.09;35.03;100662.72;12210797;19;20855;-82
2022/07/09 11:31:07;;;;;;;16.48;2.35;;;;;;;28.40;35.66;100648.88;12201882;19;20247;-81
2022/07/09 11:35:11;;;;;;;2.47;1.60;;;;;;;28.69;34.93;100652.75;12180179;19;20006;-82
2022/07/09 11:39:50;;;;;;;2.75;1.23;;;;;;;27.96;34.62;100650.47;12205819;19;20472;-81
2022/07/09 11:43:52;;;;;;;4.38;1.42;;;;;;;28.37;34.52;100643.91;12183440;19;20459;-80
2022/07/09 11:48:09;;;;;;;3.33;1.10;;;;;;;28.47;33.99;100642.69;12212903;19;20034;-82
2022/07/09 11:52:19;;;;;;;2.60;1.27;;;;;;;27.93;35.22;100642.69;12206346;19;20033;-82
2022/07/09 11:56:22;;;;;;;3.25;1.42;;;;;;;27.60;35.93;100637.75;12181209;19;20029;-80
2022/07/09 12:00:28;;;;;;;4.30;1.70;;;;;;;28.40;35.13;100631.03;12204214;19;20010;-81
2022/07/09 12:04:30;;;;;;;2.40;1.60;;;;;;;28.58;34.04;100624.03;12189966;19;20010;-82
2022/07/09 12:08:32;;;;;;;4.90;1.38;;;;;;;28.97;33.82;100613.22;12213417;19;20007;-81
2022/07/09 12:12:35;;;;;;;2.97;1.60;;;;;;;29.36;32.91;100595.78;12207717;19;20013;-79
2022/07/09 12:16:37;;;;;;;2.47;1.83;;;;;;;28.99;32.84;100610.81;12180742;19;20394;-80
2022/07/09 12:20:39;;;;;;;3.30;1.80;;;;;;;28.52;33.73;100616.94;12207831;19;20010;-80
2022/07/09 12:24:42;;;;;;;3.75;2.00;;;;;;;27.97;34.55;100609.66;12205452;19;20017;-79
2022/07/09 12:28:45;;;;;;;4.13;1.80;;;;;;;27.93;34.31;100601.06;12187245;19;20429;-79
2022/07/09 12:32:46;;;;;;;;;;;;;;;27.48;34.71;100609.38;12209376;19;20006;-77
2022/07/09 12:36:49;;;;;;;3.30;2.22;;;;;;;27.13;35.44;100609.63;12209632;19;19922;-79
2022/07/09 12:41:00;;;;;;;3.70;2.38;;;;;;;27.55;34.89;100589.88;12188080;19;20007;-80
2022/07/09 12:45:03;;;;;;;4.07;2.13;;;;;;;27.76;34.77;100580.53;12204533;19;20021;-80
2022/07/09 12:49:11;;;;;;;5.20;2.20;;;;;;;27.92;35.52;100575.91;12201661;19;20019;-80
2022/07/09 12:53:13;;;;;;;3.88;1.83;;;;;;;28.24;34.05;100573.41;12192793;19;20019;-80
2022/07/09 12:57:15;;;;;;;2.92;1.90;;;;;;;28.73;33.63;100559.28;12200085;19;20015;-80
2022/07/09 13:01:17;;;;;;;4.93;2.17;;;;;;;29.24;32.87;100548.38;12198632;19;20330;-80
2022/07/09 13:05:20;;;;;;;1.95;1.58;;;;;;;30.11;32.33;100566.78;12204757;19;20038;-81
2022/07/09 13:09:22;;;;;;;4.80;1.85;;;;;;;30.60;31.04;100552.25;12210591;19;20027;-80
2022/07/09 13:13:24;;;;;;;4.68;1.83;;;;;;;31.10;29.83;100547.78;12178654;19;20018;-80
2022/07/09 13:17:26;;;;;;;3.17;1.90;;;;;;;30.56;30.41;100552.16;12200761;19;20010;-81
2022/07/09 13:21:32;;;;;;;2.88;1.75;;;;;;;30.24;30.54;100544.81;12202524;19;20503;-81
2022/07/09 13:25:35;;;;;;;3.35;1.80;;;;;;;30.31;30.26;100542.16;12189297;19;20007;-80
2022/07/09 13:29:37;;;;;;;2.78;1.83;;;;;;;29.80;31.25;100541.94;12197410;19;20011;-80
2022/07/09 13:33:39;;;;;;;2.10;1.58;;;;;;;29.93;31.26;100547.22;12201598;19;20536;-82
2022/07/09 13:37:40;;;;;;;3.33;2.10;;;;;;;29.92;31.24;100541.88;12183783;19;20014;-81
2022/07/09 13:41:42;;;;;;;3.47;2.40;;;;;;;30.18;31.67;100552.75;12232667;19;20013;-81
2022/07/09 13:45:45;;;;;;;4.72;2.38;;;;;;;31.13;31.05;100541.34;12219339;19;20009;-82
2022/07/09 13:49:46;;;;;;;;;;;;;;;32.90;28.65;100530.16;12186905;19;20021;-82
2022/07/09 13:53:48;;;;;;;5.78;2.30;;;;;;;34.28;27.43;100522.97;12210410;19;20401;-83
2022/07/09 14:02:03;;;;;;;3.75;2.50;;;;;;;35.86;24.34;100513.34;12182860;19;20090;-83
2022/07/09 14:06:06;;;;;;;3.70;2.05;;;;;;;35.08;24.42;100520.34;12200891;19;20368;-82
2022/07/09 14:10:30;;;;;;;3.72;2.05;;;;;;;32.92;26.42;100508.56;12191235;19;20179;-82
2022/07/09 14:14:32;;;;;;;5.07;2.05;;;;;;;31.75;26.69;100513.81;12213185;19;20098;-82
2022/07/09 14:18:33;;;;;;;;;;;;;;;30.92;27.20;100509.56;12214364;19;20010;-81
2022/07/09 14:22:36;;;;;;;2.75;1.50;;;;;;;30.10;27.32;100522.47;12192738;19;19910;-84
2022/07/09 14:26:38;;;;;;;3.25;1.70;;;;;;;29.23;28.16;100507.00;12219248;19;20474;-82
2022/07/09 14:30:41;;;;;;;3.17;1.52;;;;;;;28.62;29.06;100505.09;12205387;19;20271;-83
2022/07/09 14:34:43;;;;;;;3.60;1.83;;;;;;;28.30;30.79;100501.13;12180750;19;20035;-83
2022/07/09 14:38:45;;;;;;;3.05;1.52;;;;;;;28.22;30.79;100491.56;12220395;19;20078;-80
2022/07/09 14:42:46;;;;;;;3.42;2.17;;;;;;;28.09;30.92;100481.41;12212047;19;20008;-81
2022/07/09 14:46:48;;;;;;;3.92;1.83;;;;;;;28.13;30.91;100486.00;12197446;19;20031;-81
2022/07/09 14:50:51;;;;;;;2.00;1.50;;;;;;;27.89;31.25;100480.28;12214433;19;20072;-82
2022/07/09 14:54:53;;;;;;;2.20;1.60;;;;;;;27.63;31.19;100480.53;12220693;19;20022;-82
2022/07/09 14:58:55;;;;;;;2.47;1.55;;;;;;;27.46;32.02;100475.91;12190086;19;20006;-82
2022/07/09 15:02:57;;;;;;;3.97;1.73;;;;;;;27.41;31.80;100476.94;12203915;19;20530;-82
2022/07/09 15:06:59;;;;;;;;;;;;;;;27.38;32.34;100471.13;12203990;19;20011;-81
2022/07/09 15:11:01;;;;;;;2.63;1.85;;;;;;;27.43;31.83;100466.09;12191670;19;20400;-83
2022/07/09 15:15:03;;;;;;;2.88;1.70;;;;;;;27.60;31.85;100456.59;12194290;19;20113;-83
2022/07/09 15:19:05;;;;;;;;;;;;;;;28.55;31.37;100448.13;12211562;19;20144;-82
2022/07/09 15:23:06;;;;;;;3.28;1.50;;;;;;;30.60;28.81;100433.59;12180870;19;19914;-82
2022/07/09 15:27:08;;;;;;;2.30;1.75;;;;;;;30.40;28.54;100435.59;12214675;19;20102;-80
2022/07/09 15:31:10;;;;;;;2.20;1.70;;;;;;;29.91;29.42;100423.75;12214131;19;20018;-82
2022/07/09 15:35:12;;;;;;;2.67;1.90;;;;;;;29.35;29.65;100424.63;12186474;19;20014;-81
2022/07/09 15:39:14;;;;;;;6.43;1.90;;;;;;;28.90;30.72;100407.88;12205305;19;20012;-80
2022/07/09 15:43:16;;;;;;;3.97;1.70;;;;;;;28.84;30.63;100418.66;12207578;19;20062;-83
2022/07/09 15:47:18;;;;;;;5.55;1.88;;;;;;;28.86;30.75;100416.28;12187684;19;20045;-81
2022/07/09 15:51:21;;;;;;;2.97;1.85;;;;;;;28.37;31.11;100402.16;12210885;19;20077;-82
2022/07/09 15:55:25;;;;;;;2.60;1.60;;;;;;;27.89;31.62;100415.16;12175785;19;20003;-83
2022/07/09 15:59:27;;;;;;;3.25;1.90;;;;;;;27.66;31.74;100417.56;12201231;19;20512;-84
2022/07/09 16:03:30;;;;;;;4.13;1.70;;;;;;;27.34;31.73;100410.78;12204522;19;20018;-84
2022/07/09 16:07:33;;;;;;;4.03;2.00;;;;;;;27.10;32.28;100406.63;12188347;19;20075;-84
2022/07/09 16:15:56;;;;;;;2.35;1.40;;;;;;;26.56;33.17;100396.09;12210191;19;20027;-84
2022/07/09 16:19:57;;;;;;;5.27;1.77;;;;;;;26.32;33.41;100393.88;12180304;19;20035;-84
2022/07/09 16:23:59;;;;;;;6.77;2.10;;;;;;;26.19;33.46;100396.97;12199771;19;20075;-84
2022/07/09 16:28:01;;;;;;;4.77;2.00;;;;;;;26.02;33.96;100393.03;12211543;19;20018;-83
2022/07/09 16:32:03;;;;;;;3.13;2.00;;;;;;;25.93;34.30;100392.25;12166303;19;20520;-83
2022/07/09 16:36:05;;;;;;;;;;;;;;;25.78;34.11;100392.81;12208246;19;20021;-84
2022/07/09 16:40:07;;;;;;;5.95;2.13;;;;;;;25.59;34.49;100404.50;12203987;19;19920;-82
2022/07/09 16:44:09;;;;;;;3.85;2.10;;;;;;;25.45;35.04;100408.34;12178126;19;20006;-82
2022/07/09 16:48:11;;;;;;;6.00;2.60;;;;;;;25.30;35.50;100406.03;12196562;19;20109;-82
2022/07/09 16:52:13;;;;;;;5.63;2.70;;;;;;;25.08;36.98;100423.16;12208605;19;20070;-83
2022/07/09 16:56:15;;;;;;;4.45;2.33;;;;;;;24.85;37.34;100431.75;12180406;19;20077;-81
2022/07/09 17:00:17;;;;;;;5.00;2.53;;;;;;;24.60;39.87;100441.00;12203974;19;20023;-83
2022/07/09 17:04:22;;;;;;;4.15;2.00;;;;;;;24.06;42.68;100447.63;12192758;19;20073;-84
2022/07/09 17:08:24;;;;;;;10.57;2.10;;;;;;;23.44;46.03;100464.47;12209856;19;20021;-82
2022/07/09 17:12:26;;;;;;;9.67;2.20;;;;;;;23.12;47.17;100477.63;12205281;19;20010;-81
2022/07/09 17:16:28;;;;;;;6.10;2.60;;;;;;;22.85;50.04;100472.06;12190240;19;20425;-83
2022/07/09 17:20:30;;;;;;;4.75;2.25;;;;;;;22.71;50.27;100472.91;12246040;19;20007;-85
2022/07/09 17:24:32;;;;;;;3.67;2.33;;;;;;;22.42;53.18;100483.66;12209830;19;20341;-85
2022/07/09 17:28:33;;;;;;;5.32;2.75;;;;;;;21.98;57.51;100487.88;12185197;19;20019;-83
2022/07/09 17:32:35;;;;;;;5.30;3.00;;;;;;;21.32;63.97;100496.28;12206847;19;20014;-81
2022/07/09 17:36:37;;;;;;;4.90;3.22;;;;;;;20.85;63.39;100494.47;12208993;19;20271;-79
2022/07/09 17:40:40;;;;;;;8.05;3.85;;;;;;;20.33;69.89;100499.91;12176831;19;20118;-78
2022/07/09 17:44:41;;;;;;;9.10;3.90;;;;;;;20.02;71.94;100491.03;12213480;19;20018;-79
2022/07/09 17:48:43;;;;;;;6.10;3.90;;;;;;;19.94;72.21;100491.69;12216843;19;20366;-78
2022/07/09 17:52:45;;;;;;;6.88;4.40;;;;;;;19.64;76.63;100487.19;12186817;19;20048;-79
2022/07/09 17:56:47;;;;;;;5.30;4.38;;;;;;;19.55;78.89;100490.63;12217192;19;20010;-78
2022/07/09 18:00:48;;;;;;;7.32;4.70;;;;;;;19.46;79.97;100481.19;12212216;19;20448;-77
2022/07/09 18:04:50;;;;;;;5.65;4.45;;;;;;;19.35;81.21;100480.44;12178174;19;20078;-78
2022/07/09 18:08:52;;;;;;;7.43;4.70;;;;;;;19.27;82.33;100485.81;12212677;19;20014;-79
2022/07/09 18:12:54;;;;;;;8.02;4.45;;;;;;;19.24;82.59;100475.22;12206791;19;20024;-79
2022/07/09 18:16:55;;;;;;;8.18;4.65;;;;;;;19.20;83.71;100483.34;12196639;19;20023;-79
2022/07/09 18:20:58;;;;;;;5.88;4.38;;;;;;;19.18;84.58;100493.16;12215467;19;20066;-77
2022/07/09 18:25:00;;;;;;;;;;;;;;;19.13;88.13;100482.88;12216993;19;20019;-78
2022/07/09 18:29:02;;;;;;;6.53;4.72;;;;;;;19.11;87.30;100485.94;12186123;19;19914;-77
2022/07/09 18:33:03;;;;;;;7.30;5.15;;;;;;;19.15;87.26;100471.38;12199316;19;20083;-78
2022/07/09 18:37:05;;;;;;;10.32;5.30;;;;;;;19.21;87.18;100476.63;12203240;19;20011;-78
2022/07/09 18:41:09;;;;;;;6.97;5.68;;;;;;;19.22;86.78;100464.34;12186981;19;20078;-79
2022/07/09 18:45:11;;;;;;;7.53;5.20;;;;;;;19.24;87.60;100475.22;12213324;19;20003;-78
2022/07/09 18:49:13;;;;;;;9.35;6.00;;;;;;;19.27;88.26;100471.84;12216007;19;20094;-78